Time;durP1;ratioP1;P1;durP2;ratioP2;P2;SDS_P1;SDS_P2;PMS_P1;PMS_P2;Temp;Humidity;BMP_temperature;BMP_pressure;BME280_temperature;BME280_humidity;BME280_pressure;Samples;Min_cycle;Max_cycle;Signal;HPM_P1;HPM_P2
2022/01/12 00:00:39;;;;;;;;;;;;;;;;;;5094959;28;19920;-81
2022/01/12 00:03:06;;;;;;;;;;;;;;;;;;5095185;28;19961;-81
2022/01/12 00:05:31;;;;;;;;;;;;;;;;;;5095095;28;19923;-80
2022/01/12 00:07:57;;;;;;;;;;;;;;;;;;5095125;28;19916;-80
2022/01/12 00:10:22;;;;;;;;;;;;;;;;;;5095093;28;20287;-81
2022/01/12 00:12:48;;;;;;;;;;;;;;;;;;5095093;28;20390;-83
2022/01/12 00:15:14;;;;;;;;;;;;;;;;;;5094950;28;20050;-81
2022/01/12 00:17:39;;;;;;;;;;;;;;;;;;5095093;28;19916;-81
2022/01/12 00:20:05;;;;;;;;;;;;;;;;;;5094883;28;20394;-80
2022/01/12 00:22:32;;;;;;;;;;;;;;;;;;5094859;28;19922;-82
2022/01/12 00:33:12;;;;;;;;;;;;;;;;;;5074914;28;19935;-82
2022/01/12 00:35:44;;;;;;;;;;;;;;;;;;5074538;28;20361;-80
2022/01/12 00:38:10;;;;;;;;;;;;;;;;;;5056304;28;19933;-80
2022/01/12 00:40:40;;;;;;;;;;;;;;;;;;5074238;28;19916;-80
2022/01/12 00:43:06;;;;;;;;;;;;;;;;;;5074211;28;19940;-82
2022/01/12 00:45:37;;;;;;;;;;;;;;;;;;5074145;28;20361;-81
2022/01/12 00:48:02;;;;;;;;;;;;;;;;;;5074075;28;19923;-79
2022/01/12 00:50:28;;;;;;;;;;;;;;;;;;5074144;28;19912;-81
2022/01/12 00:52:53;;;;;;;;;;;;;;;;;;5073781;28;19939;-80
2022/01/12 00:55:19;;;;;;;;;;;;;;;;;;5074084;28;20328;-80
2022/01/12 00:57:45;;;;;;;;;;;;;;;;;;5074209;28;19977;-80
2022/01/12 01:00:10;;;;;;;;;;;;;;;;;;5073828;28;19932;-81
2022/01/12 01:02:36;;;;;;;;;;;;;;;;;;5073859;28;19917;-80
2022/01/12 01:05:02;;;;;;;;;;;;;;;;;;5073939;28;19917;-81
2022/01/12 01:07:28;;;;;;;;;;;;;;;;;;5073883;28;19916;-80
2022/01/12 01:10:06;;;;;;;;;;;;;;;;;;5073079;28;20131;-80
2022/01/12 01:12:34;;;;;;;;;;;;;;;;;;5073509;28;19922;-82
2022/01/12 01:15:08;;;;;;;;;;;;;;;;;;5073812;28;20343;-81
2022/01/12 01:25:35;;;;;;;;;;;;;;;;;;5073714;28;19990;-80
2022/01/12 01:28:02;;;;;;;;;;;;;;;;;;5073905;28;19916;-82
2022/01/12 01:30:28;;;;;;;;;;;;;;;;;;5073704;28;19962;-82
2022/01/12 01:32:55;;;;;;;;;;;;;;;;;;5073263;28;20253;-83
2022/01/12 01:35:21;;;;;;;;;;;;;;;;;;5073828;28;19974;-81
2022/01/12 01:37:46;;;;;;;;;;;;;;;;;;5073391;28;19920;-80
2022/01/12 01:40:12;;;;;;;;;;;;;;;;;;5073678;28;20019;-81
2022/01/12 01:57:55;;;;;;;;;;;;;;;;;;5091539;27;20448;-76
2022/01/12 02:00:23;;;;;;;;;;;;;;;;;;5090520;28;19920;-76
2022/01/12 02:02:48;;;;;;;;;;;;;;;;;;5086221;28;19928;-78
2022/01/12 02:05:14;;;;;;;;;;;;;;;;;;5084559;28;20031;-77
2022/01/12 02:07:40;;;;;;;;;;;;;;;;;;5079089;28;19921;-76
2022/01/12 02:10:06;;;;;;;;;;;;;;;;;;5084961;28;19921;-77
2022/01/12 02:12:31;;;;;;;;;;;;;;;;;;5078445;28;19920;-77
2022/01/12 02:14:57;;;;;;;;;;;;;;;;;;5077850;28;20292;-76
2022/01/12 02:17:28;;;;;;;;;;;;;;;;;;5077372;28;19920;-75
2022/01/12 02:20:14;;;;;;;;;;;;;;;;;;5071419;28;19924;-76
2022/01/12 02:35:14;;;;;;;;;;;;;;;;;;5086829;28;19969;-77
2022/01/12 02:36:31;;;;;;;;;;;;;;;;;;5078337;28;19946;-76
2022/01/12 02:41:41;;;;;;;;;;;;;;;;;;5072477;28;20379;-76
2022/01/12 02:54:46;;;;;;;;;;;;;;;;;;5084915;28;19920;-76
2022/01/12 02:57:12;;;;;;;;;;;;;;;;;;5073310;28;20265;-77
2022/01/12 02:59:41;;;;;;;;;;;;;;;;;;5064289;28;20024;-77
2022/01/12 03:07:53;;;;;;;;;;;;;;;;;;5042937;28;20351;-76
2022/01/12 03:10:19;;;;;;;;;;;;;;;;;;5072614;28;19921;-76
2022/01/12 03:12:45;;;;;;;;;;;;;;;;;;5072173;28;19916;-77
2022/01/12 03:15:10;;;;;;;;;;;;;;;;;;5064390;28;19931;-77
2022/01/12 03:17:36;;;;;;;;;;;;;;;;;;5056336;28;20015;-76
2022/01/12 03:20:03;;;;;;;;;;;;;;;;;;5071474;28;20253;-77
2022/01/12 03:22:28;;;;;;;;;;;;;;;;;;5076162;28;19917;-77
2022/01/12 03:24:54;;;;;;;;;;;;;;;;;;5066473;28;19928;-77
2022/01/12 03:27:21;;;;;;;;;;;;;;;;;;5064811;28;19971;-77
2022/01/12 03:29:50;;;;;;;;;;;;;;;;;;5063517;28;19958;-77
2022/01/12 03:32:19;;;;;;;;;;;;;;;;;;5070645;28;19921;-78
2022/01/12 03:34:53;;;;;;;;;;;;;;;;;;5067638;28;20329;-77
2022/01/12 04:10:54;;;;;;;;;;;;;;;;;;5012124;28;19921;-76
2022/01/12 04:13:22;;;;;;;;;;;;;;;;;;5013463;28;19995;-76
2022/01/12 04:15:50;;;;;;;;;;;;;;;;;;5013311;28;19957;-76
2022/01/12 04:18:16;;;;;;;;;;;;;;;;;;5012538;28;19945;-76
2022/01/12 04:20:46;;;;;;;;;;;;;;;;;;5011529;28;19948;-76
2022/01/12 04:23:18;;;;;;;;;;;;;;;;;;5012211;28;19922;-76
2022/01/12 04:25:47;;;;;;;;;;;;;;;;;;5011738;28;20435;-76
2022/01/12 04:28:14;;;;;;;;;;;;;;;;;;5008370;28;20388;-76
2022/01/12 04:30:40;;;;;;;;;;;;;;;;;;5010651;28;20016;-77
2022/01/12 04:33:05;;;;;;;;;;;;;;;;;;5013358;28;19971;-77
2022/01/12 04:35:34;;;;;;;;;;;;;;;;;;5013335;28;19918;-76
2022/01/12 04:38:00;;;;;;;;;;;;;;;;;;5013043;28;19917;-76
2022/01/12 04:40:25;;;;;;;;;;;;;;;;;;5014619;28;19976;-77
2022/01/12 04:42:53;;;;;;;;;;;;;;;;;;5067273;28;19917;-76
2022/01/12 04:45:33;;;;;;;;;;;;;;;;;;5074627;28;20375;-77
2022/01/12 04:48:07;;;;;;;;;;;;;;;;;;5074811;28;20324;-78
2022/01/12 04:50:37;;;;;;;;;;;;;;;;;;5074857;28;19969;-78
2022/01/12 04:53:03;;;;;;;;;;;;;;;;;;5074691;28;19940;-78
2022/01/12 04:55:28;;;;;;;;;;;;;;;;;;5068188;28;19928;-79
2022/01/12 04:57:53;;;;;;;;;;;;;;;;;;5074450;28;19924;-78
2022/01/12 05:00:21;;;;;;;;;;;;;;;;;;5060983;28;19923;-78
2022/01/12 05:08:36;;;;;;;;;;;;;;;;;;5073530;28;19927;-77
2022/01/12 05:13:47;;;;;;;;;;;;;;;;;;5069897;28;19954;-76
2022/01/12 05:16:13;;;;;;;;;;;;;;;;;;5059874;28;19917;-77
2022/01/12 05:18:39;;;;;;;;;;;;;;;;;;5064477;28;20382;-77
2022/01/12 05:21:05;;;;;;;;;;;;;;;;;;5072365;28;19961;-76
2022/01/12 05:23:31;;;;;;;;;;;;;;;;;;5055777;28;19917;-76
2022/01/12 05:25:57;;;;;;;;;;;;;;;;;;5054431;28;19939;-77
2022/01/12 05:28:24;;;;;;;;;;;;;;;;;;5052858;28;19917;-77
2022/01/12 05:30:50;;;;;;;;;;;;;;;;;;5054250;28;20003;-77
2022/01/12 05:33:16;;;;;;;;;;;;;;;;;;5053957;28;19917;-77
2022/01/12 05:35:42;;;;;;;;;;;;;;;;;;5055167;28;19917;-77
2022/01/12 05:38:09;;;;;;;;;;;;;;;;;;5053906;28;19920;-77
2022/01/12 05:40:35;;;;;;;;;;;;;;;;;;5053890;28;20291;-77
2022/01/12 05:43:01;;;;;;;;;;;;;;;;;;5072280;28;20015;-76
2022/01/12 05:45:27;;;;;;;;;;;;;;;;;;5073958;28;20026;-76
2022/01/12 05:50:19;;;;;;;;;;;;;;;;;;5074177;28;19962;-77
2022/01/12 05:52:45;;;;;;;;;;;;;;;;;;5074927;28;20375;-77
2022/01/12 05:55:11;;;;;;;;;;;;;;;;;;5074137;28;19917;-77
2022/01/12 05:57:36;;;;;;;;;;;;;;;;;;5073539;28;19927;-77
2022/01/12 06:00:04;;;;;;;;;;;;;;;;;;5073832;28;20383;-77
2022/01/12 06:02:29;;;;;;;;;;;;;;;;;;5073903;28;19912;-78
2022/01/12 06:04:55;;;;;;;;;;;;;;;;;;5073792;28;19916;-76
2022/01/12 06:07:20;;;;;;;;;;;;;;;;;;5073689;28;19939;-77
2022/01/12 06:09:45;;;;;;;;;;;;;;;;;;5073549;28;19917;-77
2022/01/12 06:12:12;;;;;;;;;;;;;;;;;;5073796;28;20006;-76
2022/01/12 06:14:37;;;;;;;;;;;;;;;;;;5073699;28;19944;-77
2022/01/12 06:17:03;;;;;;;;;;;;;;;;;;5073860;28;20328;-77
2022/01/12 06:19:28;;;;;;;;;;;;;;;;;;5073437;28;19923;-78
2022/01/12 06:21:54;;;;;;;;;;;;;;;;;;5073696;28;19970;-77
2022/01/12 06:24:19;;;;;;;;;;;;;;;;;;5073670;28;19916;-76
2022/01/12 06:26:46;;;;;;;;;;;;;;;;;;5073499;28;19917;-77
2022/01/12 06:31:45;;;;;;;;;;;;;;;;;;5073418;28;19916;-76
2022/01/12 06:34:11;;;;;;;;;;;;;;;;;;5077096;28;19962;-77
2022/01/12 06:36:36;;;;;;;;;;;;;;;;;;5077106;28;19916;-76
2022/01/12 06:39:02;;;;;;;;;;;;;;;;;;5076947;28;20027;-76
2022/01/12 06:41:28;;;;;;;;;;;;;;;;;;5071253;28;19924;-76
2022/01/12 06:43:53;;;;;;;;;;;;;;;;;;5057110;28;20280;-76
2022/01/12 06:46:24;;;;;;;;;;;;;;;;;;5056761;28;19924;-76
2022/01/12 06:48:50;;;;;;;;;;;;;;;;;;5057098;28;19970;-76
2022/01/12 06:51:15;;;;;;;;;;;;;;;;;;5056771;28;19912;-76
2022/01/12 06:53:41;;;;;;;;;;;;;;;;;;5057024;28;19916;-76
2022/01/12 06:56:08;;;;;;;;;;;;;;;;;;5056862;28;20434;-76
2022/01/12 06:58:34;;;;;;;;;;;;;;;;;;5057193;28;19925;-75
2022/01/12 07:00:59;;;;;;;;;;;;;;;;;;5056907;28;19917;-76
2022/01/12 07:03:25;;;;;;;;;;;;;;;;;;5056861;28;19923;-77
2022/01/12 07:05:50;;;;;;;;;;;;;;;;;;5056719;28;19924;-77
2022/01/12 07:08:15;;;;;;;;;;;;;;;;;;5056490;28;19916;-77
2022/01/12 07:10:41;;;;;;;;;;;;;;;;;;5056429;28;19948;-77
2022/01/12 07:13:10;;;;;;;;;;;;;;;;;;5056660;28;19917;-78
2022/01/12 07:15:36;;;;;;;;;;;;;;;;;;5056591;28;20410;-77
2022/01/12 07:18:03;;;;;;;;;;;;;;;;;;5056238;28;20011;-78
2022/01/12 07:20:28;;;;;;;;;;;;;;;;;;5056243;28;20400;-77
2022/01/12 07:22:54;;;;;;;;;;;;;;;;;;5056272;28;19923;-77
2022/01/12 07:25:19;;;;;;;;;;;;;;;;;;5056071;28;19975;-77
2022/01/12 07:27:45;;;;;;;;;;;;;;;;;;5056165;28;20019;-77
2022/01/12 07:30:10;;;;;;;;;;;;;;;;;;5056137;28;19940;-77
2022/01/12 07:32:36;;;;;;;;;;;;;;;;;;5056288;28;20011;-76
2022/01/12 07:35:01;;;;;;;;;;;;;;;;;;5056136;28;20291;-78
2022/01/12 07:37:27;;;;;;;;;;;;;;;;;;5056226;28;20351;-77
2022/01/12 07:39:52;;;;;;;;;;;;;;;;;;5055882;28;20314;-76
2022/01/12 07:42:18;;;;;;;;;;;;;;;;;;5068346;28;19920;-76
2022/01/12 07:44:44;;;;;;;;;;;;;;;;;;5075739;28;19921;-77
2022/01/12 07:47:09;;;;;;;;;;;;;;;;;;5075745;28;19917;-77
2022/01/12 07:49:36;;;;;;;;;;;;;;;;;;5075810;28;19916;-78
2022/01/12 07:52:02;;;;;;;;;;;;;;;;;;5075775;28;20003;-77
2022/01/12 07:54:28;;;;;;;;;;;;;;;;;;5075759;28;19923;-78
2022/01/12 07:56:53;;;;;;;;;;;;;;;;;;5075412;28;19924;-77
2022/01/12 07:59:19;;;;;;;;;;;;;;;;;;5075569;28;19918;-77
2022/01/12 08:01:44;;;;;;;;;;;;;;;;;;5075615;28;19960;-76
2022/01/12 08:04:09;;;;;;;;;;;;;;;;;;5075781;28;19920;-77
2022/01/12 08:06:35;;;;;;;;;;;;;;;;;;5075268;28;19924;-77
2022/01/12 08:09:00;;;;;;;;;;;;;;;;;;5075361;28;19924;-77
2022/01/12 08:11:26;;;;;;;;;;;;;;;;;;5075429;28;20359;-77
2022/01/12 08:13:52;;;;;;;;;;;;;;;;;;5075193;28;19917;-77
2022/01/12 08:16:18;;;;;;;;;;;;;;;;;;5075236;28;19920;-77
2022/01/12 08:18:43;;;;;;;;;;;;;;;;;;5075145;28;19917;-76
2022/01/12 08:21:09;;;;;;;;;;;;;;;;;;5075467;28;19916;-77
2022/01/12 08:23:34;;;;;;;;;;;;;;;;;;5074964;28;19917;-76
2022/01/12 08:26:00;;;;;;;;;;;;;;;;;;5074912;28;19917;-77
2022/01/12 08:28:25;;;;;;;;;;;;;;;;;;5075240;28;19917;-76
2022/01/12 08:30:51;;;;;;;;;;;;;;;;;;5074877;28;19912;-76
2022/01/12 08:33:17;;;;;;;;;;;;;;;;;;5075060;28;20027;-77
2022/01/12 08:35:42;;;;;;;;;;;;;;;;;;5074820;28;19962;-77
2022/01/12 08:38:08;;;;;;;;;;;;;;;;;;5074784;28;19920;-77
2022/01/12 08:40:33;;;;;;;;;;;;;;;;;;5074896;28;19985;-76
2022/01/12 08:42:59;;;;;;;;;;;;;;;;;;5056439;28;19949;-76
2022/01/12 08:45:24;;;;;;;;;;;;;;;;;;5068778;28;20394;-76
2022/01/12 08:47:50;;;;;;;;;;;;;;;;;;5065453;28;19923;-77
2022/01/12 08:50:16;;;;;;;;;;;;;;;;;;5053432;28;19916;-76
2022/01/12 08:52:44;;;;;;;;;;;;;;;;;;5053298;28;19916;-77
2022/01/12 08:55:10;;;;;;;;;;;;;;;;;;5054011;28;20316;-77
2022/01/12 08:57:36;;;;;;;;;;;;;;;;;;5054348;28;19921;-77
2022/01/12 09:00:04;;;;;;;;;;;;;;;;;;5054736;28;20343;-76
2022/01/12 09:02:29;;;;;;;;;;;;;;;;;;5054243;28;19944;-76
2022/01/12 09:04:55;;;;;;;;;;;;;;;;;;5054450;28;19924;-77
2022/01/12 09:07:20;;;;;;;;;;;;;;;;;;5054374;28;19917;-76
2022/01/12 09:09:46;;;;;;;;;;;;;;;;;;5054274;28;19916;-77
2022/01/12 09:12:11;;;;;;;;;;;;;;;;;;5054392;28;20008;-76
2022/01/12 09:14:37;;;;;;;;;;;;;;;;;;5054285;28;20386;-77
2022/01/12 09:17:02;;;;;;;;;;;;;;;;;;5053410;28;19917;-76
2022/01/12 09:19:28;;;;;;;;;;;;;;;;;;5054151;28;19916;-77
2022/01/12 09:21:54;;;;;;;;;;;;;;;;;;5054004;28;20174;-77
2022/01/12 09:24:19;;;;;;;;;;;;;;;;;;5054432;28;19925;-77
2022/01/12 09:26:45;;;;;;;;;;;;;;;;;;5054085;28;19924;-77
2022/01/12 09:29:11;;;;;;;;;;;;;;;;;;5054240;28;19939;-77
2022/01/12 09:31:36;;;;;;;;;;;;;;;;;;5054702;28;19924;-78
2022/01/12 09:34:02;;;;;;;;;;;;;;;;;;5053879;28;20261;-76
2022/01/12 09:36:28;;;;;;;;;;;;;;;;;;5053916;28;19931;-77
2022/01/12 09:38:54;;;;;;;;;;;;;;;;;;5053935;28;20012;-77
2022/01/12 09:41:20;;;;;;;;;;;;;;;;;;5058074;28;19963;-77
2022/01/12 09:43:49;;;;;;;;;;;;;;;;;;5073874;28;20379;-78
2022/01/12 09:46:15;;;;;;;;;;;;;;;;;;5074410;28;19924;-77
2022/01/12 09:48:40;;;;;;;;;;;;;;;;;;5073440;28;19928;-77
2022/01/12 09:51:07;;;;;;;;;;;;;;;;;;5072167;28;19912;-79
2022/01/12 09:53:33;;;;;;;;;;;;;;;;;;5073283;28;20315;-78
2022/01/12 09:55:59;;;;;;;;;;;;;;;;;;5070472;28;19916;-77
2022/01/12 09:58:27;;;;;;;;;;;;;;;;;;5072103;28;19923;-78
2022/01/12 10:01:00;;;;;;;;;;;;;;;;;;5071995;28;19920;-77
2022/01/12 10:03:25;;;;;;;;;;;;;;;;;;5072534;28;19916;-77
2022/01/12 10:05:51;;;;;;;;;;;;;;;;;;5072684;28;20279;-76
2022/01/12 10:08:17;;;;;;;;;;;;;;;;;;5073879;28;20346;-79
2022/01/12 10:10:48;;;;;;;;;;;;;;;;;;5076836;28;19952;-79
2022/01/12 10:13:25;;;;;;;;;;;;;;;;;;5076431;28;20299;-79
2022/01/12 10:15:52;;;;;;;;;;;;;;;;;;5073614;28;20360;-78
2022/01/12 10:18:18;;;;;;;;;;;;;;;;;;5076155;28;19920;-78
2022/01/12 10:20:44;;;;;;;;;;;;;;;;;;5076076;28;19969;-79
2022/01/12 10:23:11;;;;;;;;;;;;;;;;;;5073854;28;20029;-76
2022/01/12 10:25:37;;;;;;;;;;;;;;;;;;5075904;28;19912;-75
2022/01/12 10:28:16;;;;;;;;;;;;;;;;;;5075781;28;19921;-76
2022/01/12 10:30:52;;;;;;;;;;;;;;;;;;5073623;28;20281;-77
2022/01/12 10:33:17;;;;;;;;;;;;;;;;;;5071468;28;20421;-77
2022/01/12 10:35:43;;;;;;;;;;;;;;;;;;5075845;28;19920;-77
2022/01/12 10:38:12;;;;;;;;;;;;;;;;;;5075613;28;19962;-75
2022/01/12 10:40:51;;;;;;;;;;;;;;;;;;5075544;28;19921;-76
2022/01/12 10:43:31;;;;;;;;;;;;;;;;;;5059453;28;20400;-77
2022/01/12 10:45:59;;;;;;;;;;;;;;;;;;5059054;28;19931;-77
2022/01/12 10:48:25;;;;;;;;;;;;;;;;;;5059230;28;20375;-77
2022/01/12 10:50:57;;;;;;;;;;;;;;;;;;5071990;28;19921;-78
2022/01/12 10:53:29;;;;;;;;;;;;;;;;;;5076741;28;19928;-78
2022/01/12 10:56:09;;;;;;;;;;;;;;;;;;5074081;28;19924;-77
2022/01/12 10:58:36;;;;;;;;;;;;;;;;;;5076819;28;19954;-77
2022/01/12 11:01:02;;;;;;;;;;;;;;;;;;5076743;28;19917;-78
2022/01/12 11:03:29;;;;;;;;;;;;;;;;;;5076543;28;19979;-77
2022/01/12 11:05:54;;;;;;;;;;;;;;;;;;5076494;28;19927;-76
2022/01/12 11:08:22;;;;;;;;;;;;;;;;;;5076592;28;19916;-76
2022/01/12 11:10:48;;;;;;;;;;;;;;;;;;5076214;28;20501;-77
2022/01/12 11:13:13;;;;;;;;;;;;;;;;;;5073884;28;19920;-76
2022/01/12 11:15:39;;;;;;;;;;;;;;;;;;5075795;28;19938;-76
2022/01/12 11:18:04;;;;;;;;;;;;;;;;;;5075969;28;19986;-76
2022/01/12 11:20:33;;;;;;;;;;;;;;;;;;5076381;28;19916;-76
2022/01/12 11:23:01;;;;;;;;;;;;;;;;;;5076369;28;19920;-75
2022/01/12 11:25:29;;;;;;;;;;;;;;;;;;5075561;28;19974;-77
2022/01/12 11:28:09;;;;;;;;;;;;;;;;;;5074949;28;19986;-76
2022/01/12 11:30:35;;;;;;;;;;;;;;;;;;5075545;28;19920;-76
2022/01/12 11:33:02;;;;;;;;;;;;;;;;;;5076199;28;20361;-76
2022/01/12 11:35:29;;;;;;;;;;;;;;;;;;5075122;28;19964;-76
2022/01/12 11:37:59;;;;;;;;;;;;;;;;;;5073833;28;19925;-77
2022/01/12 11:40:32;;;;;;;;;;;;;;;;;;5074572;28;19938;-76
2022/01/12 11:42:57;;;;;;;;;;;;;;;;;;5073372;28;19924;-77
2022/01/12 11:45:22;;;;;;;;;;;;;;;;;;5075251;28;20288;-77
2022/01/12 11:47:48;;;;;;;;;;;;;;;;;;5075375;28;20280;-77
2022/01/12 11:50:13;;;;;;;;;;;;;;;;;;5075726;28;20361;-76
2022/01/12 11:52:39;;;;;;;;;;;;;;;;;;5075622;28;20368;-76
2022/01/12 11:55:12;;;;;;;;;;;;;;;;;;5075181;28;20442;-76
2022/01/12 11:57:41;;;;;;;;;;;;;;;;;;5072473;28;19920;-77
2022/01/12 12:00:09;;;;;;;;;;;;;;;;;;5074180;28;19935;-77
2022/01/12 12:02:36;;;;;;;;;;;;;;;;;;5074141;28;19916;-77
2022/01/12 12:05:03;;;;;;;;;;;;;;;;;;5074522;28;19920;-77
2022/01/12 12:07:29;;;;;;;;;;;;;;;;;;5078834;28;19916;-77
2022/01/12 12:09:57;;;;;;;;;;;;;;;;;;5071995;28;19927;-77
2022/01/12 12:12:29;;;;;;;;;;;;;;;;;;5074100;28;19970;-77
2022/01/12 12:14:57;;;;;;;;;;;;;;;;;;5074490;28;19963;-76
2022/01/12 12:17:23;;;;;;;;;;;;;;;;;;5075181;28;19920;-77
2022/01/12 12:19:49;;;;;;;;;;;;;;;;;;5075111;28;20003;-76
2022/01/12 12:22:17;;;;;;;;;;;;;;;;;;5075468;28;19959;-76
2022/01/12 12:24:43;;;;;;;;;;;;;;;;;;5075403;28;19923;-76
2022/01/12 12:27:10;;;;;;;;;;;;;;;;;;5057946;28;20390;-76
2022/01/12 12:29:36;;;;;;;;;;;;;;;;;;5061054;28;19924;-76
2022/01/12 12:32:02;;;;;;;;;;;;;;;;;;5060175;28;20376;-77
2022/01/12 12:34:28;;;;;;;;;;;;;;;;;;5060188;28;19920;-77
2022/01/12 12:36:58;;;;;;;;;;;;;;;;;;5063020;28;19943;-77
2022/01/12 12:39:24;;;;;;;;;;;;;;;;;;5067387;28;19928;-77
2022/01/12 12:41:50;;;;;;;;;;;;;;;;;;5055016;28;20288;-78
2022/01/12 12:44:21;;;;;;;;;;;;;;;;;;5054461;28;19912;-77
2022/01/12 12:46:48;;;;;;;;;;;;;;;;;;5054236;28;20069;-77
2022/01/12 12:49:13;;;;;;;;;;;;;;;;;;5054707;28;20405;-77
2022/01/12 12:51:39;;;;;;;;;;;;;;;;;;5068038;28;19921;-77
2022/01/12 12:54:04;;;;;;;;;;;;;;;;;;5069415;28;19958;-77
2022/01/12 12:56:31;;;;;;;;;;;;;;;;;;5072361;28;19920;-77
2022/01/12 12:58:57;;;;;;;;;;;;;;;;;;5073559;28;19973;-76
2022/01/12 13:01:23;;;;;;;;;;;;;;;;;;5069110;28;19924;-77
2022/01/12 13:03:50;;;;;;;;;;;;;;;;;;5072864;28;19927;-78
2022/01/12 13:06:20;;;;;;;;;;;;;;;;;;5072842;28;19917;-77
2022/01/12 13:08:53;;;;;;;;;;;;;;;;;;5070482;28;19974;-76
2022/01/12 13:11:18;;;;;;;;;;;;;;;;;;5056282;28;19927;-77
2022/01/12 13:13:54;;;;;;;;;;;;;;;;;;5057715;28;19924;-77
2022/01/12 13:16:19;;;;;;;;;;;;;;;;;;5068519;28;19920;-77
2022/01/12 13:18:47;;;;;;;;;;;;;;;;;;5072372;28;20387;-78
2022/01/12 13:21:15;;;;;;;;;;;;;;;;;;5068588;28;19928;-77
2022/01/12 13:23:42;;;;;;;;;;;;;;;;;;5057130;28;20007;-77
2022/01/12 13:26:09;;;;;;;;;;;;;;;;;;5072954;28;19920;-78
2022/01/12 13:28:36;;;;;;;;;;;;;;;;;;5075344;28;20300;-79
2022/01/12 13:31:03;;;;;;;;;;;;;;;;;;5074336;28;19916;-79
2022/01/12 13:33:35;;;;;;;;;;;;;;;;;;5074404;28;19940;-77
2022/01/12 13:36:11;;;;;;;;;;;;;;;;;;5074143;28;19913;-78
2022/01/12 13:38:37;;;;;;;;;;;;;;;;;;5074228;28;19916;-78
2022/01/12 13:41:07;;;;;;;;;;;;;;;;;;5072881;28;19919;-78
2022/01/12 13:43:32;;;;;;;;;;;;;;;;;;5072718;28;19916;-80
2022/01/12 13:46:04;;;;;;;;;;;;;;;;;;5074107;28;19924;-77
2022/01/12 13:48:31;;;;;;;;;;;;;;;;;;5074034;28;20380;-77
2022/01/12 13:50:57;;;;;;;;;;;;;;;;;;5072966;28;20034;-77
2022/01/12 13:53:36;;;;;;;;;;;;;;;;;;5071300;28;20007;-78
2022/01/12 13:56:03;;;;;;;;;;;;;;;;;;5072214;28;19924;-77
2022/01/12 13:58:29;;;;;;;;;;;;;;;;;;5072504;28;20261;-78
2022/01/12 14:01:00;;;;;;;;;;;;;;;;;;5072390;28;19998;-77
2022/01/12 14:03:26;;;;;;;;;;;;;;;;;;5072378;28;19920;-78
2022/01/12 14:05:59;;;;;;;;;;;;;;;;;;5072196;28;19921;-78
2022/01/12 14:08:39;;;;;;;;;;;;;;;;;;5072480;28;19920;-77
2022/01/12 14:11:05;;;;;;;;;;;;;;;;;;5070972;28;20376;-77
2022/01/12 14:13:30;;;;;;;;;;;;;;;;;;5072240;28;19943;-78
2022/01/12 14:16:25;;;;;;;;;;;;;;;;;;5072313;28;19963;-77
2022/01/12 14:18:57;;;;;;;;;;;;;;;;;;5055793;28;19916;-77
2022/01/12 14:21:22;;;;;;;;;;;;;;;;;;5071953;28;20291;-77
2022/01/12 14:23:48;;;;;;;;;;;;;;;;;;5071954;28;19927;-78
2022/01/12 14:26:21;;;;;;;;;;;;;;;;;;5071699;28;20436;-77
2022/01/12 14:28:46;;;;;;;;;;;;;;;;;;5072062;28;19989;-77
2022/01/12 14:31:11;;;;;;;;;;;;;;;;;;5072163;28;19921;-76
2022/01/12 14:33:37;;;;;;;;;;;;;;;;;;5072952;28;20015;-78
2022/01/12 14:36:02;;;;;;;;;;;;;;;;;;5070993;28;19920;-77
2022/01/12 14:38:28;;;;;;;;;;;;;;;;;;5072535;28;20273;-77
2022/01/12 14:40:53;;;;;;;;;;;;;;;;;;5073146;28;20029;-78
2022/01/12 14:43:19;;;;;;;;;;;;;;;;;;5072878;28;19920;-78
2022/01/12 14:45:45;;;;;;;;;;;;;;;;;;5071842;28;19927;-77
2022/01/12 14:48:12;;;;;;;;;;;;;;;;;;5073265;28;19922;-77
2022/01/12 14:50:37;;;;;;;;;;;;;;;;;;5072164;28;19965;-77
2022/01/12 14:53:04;;;;;;;;;;;;;;;;;;5072114;28;20422;-77
2022/01/12 14:55:29;;;;;;;;;;;;;;;;;;5077069;28;20061;-77
2022/01/12 14:57:55;;;;;;;;;;;;;;;;;;5076563;28;20011;-77
2022/01/12 15:00:28;;;;;;;;;;;;;;;;;;5076663;28;19924;-77
2022/01/12 15:03:01;;;;;;;;;;;;;;;;;;5076419;28;20297;-77
2022/01/12 15:05:27;;;;;;;;;;;;;;;;;;5076533;28;19924;-77
2022/01/12 15:07:53;;;;;;;;;;;;;;;;;;5076599;28;20083;-78
2022/01/12 15:10:19;;;;;;;;;;;;;;;;;;5076758;28;20344;-77
2022/01/12 15:12:48;;;;;;;;;;;;;;;;;;5076732;28;20372;-77
2022/01/12 15:15:14;;;;;;;;;;;;;;;;;;5076712;28;19959;-77
2022/01/12 15:17:40;;;;;;;;;;;;;;;;;;5076322;28;19960;-77
2022/01/12 15:20:08;;;;;;;;;;;;;;;;;;5076336;28;19978;-78
2022/01/12 15:22:41;;;;;;;;;;;;;;;;;;5074610;28;20342;-78
2022/01/12 15:25:07;;;;;;;;;;;;;;;;;;5077771;28;19921;-77
2022/01/12 15:27:32;;;;;;;;;;;;;;;;;;5077045;28;19938;-76
2022/01/12 15:29:58;;;;;;;;;;;;;;;;;;5074340;28;19928;-76
2022/01/12 15:32:26;;;;;;;;;;;;;;;;;;5076193;28;19970;-76
2022/01/12 15:34:52;;;;;;;;;;;;;;;;;;5076423;28;20253;-76
2022/01/12 15:37:17;;;;;;;;;;;;;;;;;;5074252;28;19931;-76
2022/01/12 15:39:43;;;;;;;;;;;;;;;;;;5073744;28;19978;-76
2022/01/12 15:42:08;;;;;;;;;;;;;;;;;;5074934;28;19946;-77
2022/01/12 15:44:34;;;;;;;;;;;;;;;;;;5075052;28;20011;-76
2022/01/12 15:46:59;;;;;;;;;;;;;;;;;;5074531;28;19958;-76
2022/01/12 15:49:25;;;;;;;;;;;;;;;;;;5074440;28;19923;-76
2022/01/12 15:51:51;;;;;;;;;;;;;;;;;;5074888;28;19927;-76
2022/01/12 15:54:16;;;;;;;;;;;;;;;;;;5073941;28;20058;-77
2022/01/12 15:56:41;;;;;;;;;;;;;;;;;;5071606;28;19921;-76
2022/01/12 15:59:07;;;;;;;;;;;;;;;;;;5073104;28;19920;-78
2022/01/12 16:01:32;;;;;;;;;;;;;;;;;;5074464;28;20005;-76
2022/01/12 16:03:58;;;;;;;;;;;;;;;;;;5074157;28;20398;-77
2022/01/12 16:06:26;;;;;;;;;;;;;;;;;;5074091;28;19916;-75
2022/01/12 16:08:52;;;;;;;;;;;;;;;;;;5074038;28;20338;-77
2022/01/12 16:11:18;;;;;;;;;;;;;;;;;;5074120;28;19916;-77
2022/01/12 16:13:44;;;;;;;;;;;;;;;;;;5072679;28;19948;-76
2022/01/12 16:16:10;;;;;;;;;;;;;;;;;;5074721;28;19995;-78
2022/01/12 16:18:36;;;;;;;;;;;;;;;;;;5072600;28;20032;-76
2022/01/12 16:21:03;;;;;;;;;;;;;;;;;;5072786;28;19920;-77
2022/01/12 16:23:29;;;;;;;;;;;;;;;;;;5062103;28;19978;-77
2022/01/12 16:25:58;;;;;;;;;;;;;;;;;;5059797;28;20333;-77
2022/01/12 16:28:24;;;;;;;;;;;;;;;;;;5060312;28;20287;-77
2022/01/12 16:30:51;;;;;;;;;;;;;;;;;;5063864;28;19916;-77
2022/01/12 16:33:17;;;;;;;;;;;;;;;;;;5058899;28;20599;-77
2022/01/12 16:35:46;;;;;;;;;;;;;;;;;;5057590;28;19920;-76
2022/01/12 16:38:12;;;;;;;;;;;;;;;;;;5056615;28;20374;-76
2022/01/12 16:40:38;;;;;;;;;;;;;;;;;;5063477;28;20360;-77
2022/01/12 16:43:03;;;;;;;;;;;;;;;;;;5064654;28;19963;-76
2022/01/12 16:45:29;;;;;;;;;;;;;;;;;;5066368;28;20367;-75
2022/01/12 16:47:54;;;;;;;;;;;;;;;;;;5059960;28;19932;-76
2022/01/12 16:50:20;;;;;;;;;;;;;;;;;;5061853;28;19954;-76
2022/01/12 16:52:45;;;;;;;;;;;;;;;;;;5064227;28;19929;-76
2022/01/12 16:55:10;;;;;;;;;;;;;;;;;;5069424;28;20463;-76
2022/01/12 16:57:36;;;;;;;;;;;;;;;;;;5065553;28;19921;-76
2022/01/12 17:00:03;;;;;;;;;;;;;;;;;;5054056;28;19917;-75
2022/01/12 17:02:28;;;;;;;;;;;;;;;;;;5070383;28;20011;-76
2022/01/12 17:04:58;;;;;;;;;;;;;;;;;;5071744;28;20364;-77
2022/01/12 17:07:24;;;;;;;;;;;;;;;;;;5061513;28;19929;-75
2022/01/12 17:09:49;;;;;;;;;;;;;;;;;;5063338;28;20295;-76
2022/01/12 17:12:15;;;;;;;;;;;;;;;;;;5059832;28;20343;-76
2022/01/12 18:04:23;;;;;;;;;;;;;;;;;;5078833;27;19921;-80
2022/01/12 18:06:49;;;;;;;;;;;;;;;;;;5084671;28;19932;-83
2022/01/12 18:09:14;;;;;;;;;;;;;;;;;;5081266;28;19916;-81
2022/01/12 18:11:40;;;;;;;;;;;;;;;;;;5071091;28;19916;-81
2022/01/12 18:14:05;;;;;;;;;;;;;;;;;;5076132;28;19924;-80
2022/01/12 18:16:34;;;;;;;;;;;;;;;;;;5087978;28;19927;-81
2022/01/12 18:19:09;;;;;;;;;;;;;;;;;;5085809;28;19920;-82
2022/01/12 18:21:35;;;;;;;;;;;;;;;;;;5089405;28;20435;-81
2022/01/12 18:24:00;;;;;;;;;;;;;;;;;;5087806;28;20011;-81
2022/01/12 18:26:26;;;;;;;;;;;;;;;;;;5085816;28;19920;-81
2022/01/12 18:28:51;;;;;;;;;;;;;;;;;;5090962;28;19993;-81
2022/01/12 18:31:17;;;;;;;;;;;;;;;;;;5090830;28;19921;-81
2022/01/12 18:33:43;;;;;;;;;;;;;;;;;;5089528;28;20353;-80
2022/01/12 18:36:10;;;;;;;;;;;;;;;;;;5078738;28;20441;-82
2022/01/12 18:38:37;;;;;;;;;;;;;;;;;;5077008;28;20008;-81
2022/01/12 18:41:04;;;;;;;;;;;;;;;;;;5080434;28;19924;-83
2022/01/12 18:43:29;;;;;;;;;;;;;;;;;;5074750;28;19921;-84
2022/01/12 18:45:55;;;;;;;;;;;;;;;;;;5081231;28;19921;-83
2022/01/12 18:48:21;;;;;;;;;;;;;;;;;;5076583;28;19921;-82
2022/01/12 18:50:46;;;;;;;;;;;;;;;;;;5080985;28;20058;-80
2022/01/12 18:53:12;;;;;;;;;;;;;;;;;;5078449;28;19924;-80
2022/01/12 18:55:37;;;;;;;;;;;;;;;;;;5087611;28;19967;-79
2022/01/12 18:58:04;;;;;;;;;;;;;;;;;;5070067;28;20027;-81
2022/01/12 19:00:30;;;;;;;;;;;;;;;;;;5075142;28;19999;-81
2022/01/12 19:02:55;;;;;;;;;;;;;;;;;;5098385;28;20022;-79
2022/01/12 19:05:21;;;;;;;;;;;;;;;;;;5110569;28;19916;-80
2022/01/12 19:07:46;;;;;;;;;;;;;;;;;;5110515;28;19912;-79
2022/01/12 19:10:12;;;;;;;;;;;;;;;;;;5095300;28;19921;-80
2022/01/12 19:12:40;;;;;;;;;;;;;;;;;;5090070;28;19917;-80
2022/01/12 19:15:06;;;;;;;;;;;;;;;;;;5079867;28;19913;-81
2022/01/12 19:17:32;;;;;;;;;;;;;;;;;;5076406;28;20268;-79
2022/01/12 19:20:00;;;;;;;;;;;;;;;;;;5076482;28;19920;-82
2022/01/12 19:22:27;;;;;;;;;;;;;;;;;;5076251;28;19959;-82